createdAt,value
2022-11-10T00:00:36.521Z,29.52
2022-11-10T00:03:22.607Z,31.92
2022-11-10T00:06:09.698Z,25.50
2022-11-10T00:08:54.916Z,26.05
2022-11-10T00:11:40.173Z,16.65
2022-11-10T00:14:43.923Z,23.08
2022-11-10T00:17:29.159Z,23.92
2022-11-10T00:20:14.453Z,25.27
2022-11-10T00:22:59.666Z,22.35
2022-11-10T00:25:44.967Z,17.50
2022-11-10T00:28:32.078Z,13.20
2022-11-10T00:31:17.322Z,16.15
2022-11-10T00:34:02.362Z,21.90
2022-11-10T00:36:47.477Z,21.23
2022-11-10T00:39:33.101Z,15.00
2022-11-10T00:42:18.026Z,19.52
2022-11-10T00:45:03.215Z,16.77
2022-11-10T00:47:48.375Z,20.92
2022-11-10T00:50:33.645Z,16.90
2022-11-10T00:53:19.375Z,15.77
2022-11-10T00:56:04.774Z,13.85
2022-11-10T00:58:50.323Z,14.38
2022-11-10T01:01:35.660Z,11.88
2022-11-10T01:04:20.561Z,10.90
2022-11-10T01:07:05.785Z,16.63
2022-11-10T01:09:50.485Z,19.23
2022-11-10T01:12:35.604Z,16.15
2022-11-10T01:15:27.086Z,13.10
2022-11-10T01:18:14.034Z,12.15
2022-11-10T01:20:59.223Z,15.75
2022-11-10T01:23:45.082Z,15.88
2022-11-10T01:26:30.304Z,17.15
2022-11-10T01:29:15.604Z,14.20
2022-11-10T01:32:00.539Z,27.75
2022-11-10T01:34:45.628Z,20.67
2022-11-10T01:37:30.677Z,26.88
2022-11-10T01:40:15.630Z,26.52
2022-11-10T01:43:00.841Z,31.35
2022-11-10T01:45:54.139Z,24.10
2022-11-10T01:48:53.218Z,27.90
2022-11-10T01:51:47.468Z,25.20
2022-11-10T01:54:37.155Z,26.48
2022-11-10T01:57:22.424Z,23.48
2022-11-10T02:00:08.470Z,20.65
2022-11-10T02:03:17.703Z,24.70
2022-11-10T02:06:04.289Z,20.00
2022-11-10T02:08:50.570Z,25.67
2022-11-10T02:11:37.673Z,24.10
2022-11-10T02:14:23.387Z,18.55
2022-11-10T02:17:09.035Z,26.25
2022-11-10T02:19:59.712Z,20.33
2022-11-10T02:22:44.950Z,19.35
2022-11-10T02:25:32.377Z,23.63
2022-11-10T02:28:17.320Z,32.60
2022-11-10T02:31:03.300Z,19.73
2022-11-10T02:33:48.374Z,25.13
2022-11-10T02:36:33.255Z,17.58
2022-11-10T02:39:18.492Z,22.45
2022-11-10T02:42:04.779Z,20.52
2022-11-10T02:44:50.455Z,21.83
2022-11-10T02:47:35.829Z,23.77
2022-11-10T02:50:20.864Z,19.48
2022-11-10T02:53:06.497Z,22.85
2022-11-10T02:55:51.578Z,21.27
2022-11-10T02:58:36.633Z,19.15
2022-11-10T03:01:21.752Z,21.75
2022-11-10T03:04:07.111Z,20.30
2022-11-10T03:06:52.456Z,20.95
2022-11-10T03:09:37.366Z,22.30
2022-11-10T03:12:22.683Z,19.80
2022-11-10T03:15:08.415Z,29.98
2022-11-10T03:17:54.016Z,20.27
2022-11-10T03:20:39.129Z,18.63
2022-11-10T03:23:24.617Z,14.83
2022-11-10T03:26:09.842Z,18.50
2022-11-10T03:28:54.652Z,18.23
2022-11-10T03:31:39.576Z,16.00
2022-11-10T03:34:27.022Z,22.80
2022-11-10T03:37:15.914Z,15.07
2022-11-10T03:40:00.883Z,24.67
2022-11-10T03:42:46.364Z,18.58
2022-11-10T03:45:31.488Z,21.75
2022-11-10T03:48:16.777Z,19.92
2022-11-10T03:51:01.798Z,19.27
2022-11-10T03:53:46.819Z,17.55
2022-11-10T03:56:32.116Z,20.58
2022-11-10T03:59:17.060Z,20.63
2022-11-10T04:02:02.460Z,26.30
2022-11-10T04:05:06.276Z,23.85
2022-11-10T04:08:20.290Z,19.23
2022-11-10T04:11:05.706Z,20.67
2022-11-10T04:14:09.410Z,30.60
2022-11-10T04:16:55.169Z,22.52
2022-11-10T04:19:39.933Z,16.33
2022-11-10T04:22:43.637Z,21.02
2022-11-10T04:25:28.843Z,20.27
2022-11-10T04:28:14.035Z,33.67
2022-11-10T04:30:58.982Z,21.27
2022-11-10T04:33:45.496Z,19.58
2022-11-10T04:36:33.267Z,19.77
2022-11-10T04:39:18.360Z,21.90
2022-11-10T04:42:03.329Z,21.35
2022-11-10T04:44:48.698Z,16.70
2022-11-10T04:47:33.508Z,27.75
2022-11-10T04:50:18.522Z,24.63
2022-11-10T04:53:03.719Z,20.30
2022-11-10T04:55:48.831Z,24.85
2022-11-10T04:58:34.120Z,24.80
2022-11-10T05:01:22.473Z,20.20
2022-11-10T05:04:07.668Z,21.35
2022-11-10T05:06:53.887Z,24.02
2022-11-10T05:09:38.768Z,23.67
2022-11-10T05:12:23.790Z,23.48
2022-11-10T05:15:09.386Z,19.80
2022-11-10T05:17:54.885Z,25.67
2022-11-10T05:20:39.816Z,15.18
2022-11-10T05:23:39.057Z,25.63
2022-11-10T05:26:24.428Z,20.48
2022-11-10T05:29:09.296Z,22.35
2022-11-10T05:31:54.425Z,16.85
2022-11-10T05:34:39.303Z,25.70
2022-11-10T05:37:24.469Z,18.08
2022-11-10T05:40:09.896Z,19.67
2022-11-10T05:42:54.854Z,23.23
2022-11-10T05:45:40.094Z,20.40
2022-11-10T05:48:25.339Z,16.58
2022-11-10T05:51:10.472Z,18.98
2022-11-10T05:53:55.428Z,19.92
2022-11-10T05:56:40.749Z,20.95
2022-11-10T05:59:25.845Z,23.35
2022-11-10T06:02:10.866Z,13.23
2022-11-10T06:04:56.123Z,14.68
2022-11-10T06:07:41.342Z,15.00
2022-11-10T06:10:26.500Z,27.80
2022-11-10T06:13:11.361Z,20.80
2022-11-10T06:15:56.340Z,24.60
2022-11-10T06:18:41.367Z,21.50
2022-11-10T06:21:26.566Z,17.10
2022-11-10T06:24:11.600Z,18.90
2022-11-10T06:26:56.811Z,19.13
2022-11-10T06:29:42.087Z,14.35
2022-11-10T06:32:27.306Z,21.58
2022-11-10T06:35:12.584Z,21.40
2022-11-10T06:38:06.041Z,17.83
2022-11-10T06:40:50.903Z,21.25
2022-11-10T06:43:36.069Z,18.10
2022-11-10T06:46:21.192Z,20.08
2022-11-10T06:49:06.326Z,14.70
2022-11-10T06:51:52.138Z,21.10
2022-11-10T06:54:37.379Z,20.85
2022-11-10T06:57:22.508Z,24.45
2022-11-10T07:00:08.399Z,22.55
2022-11-10T07:03:01.575Z,29.73
2022-11-10T07:05:46.622Z,27.33
2022-11-10T07:08:31.861Z,21.08
2022-11-10T07:11:16.832Z,23.33
2022-11-10T07:14:01.856Z,13.90
2022-11-10T07:16:46.702Z,22.83
2022-11-10T07:19:32.533Z,20.08
2022-11-10T07:22:17.378Z,14.88
2022-11-10T07:25:02.332Z,19.88
2022-11-10T07:27:53.391Z,18.55
2022-11-10T07:30:41.285Z,23.58
2022-11-10T07:33:26.392Z,18.52
2022-11-10T07:36:11.523Z,20.02
2022-11-10T07:38:56.607Z,16.88
2022-11-10T07:41:41.796Z,19.58
2022-11-10T07:44:27.708Z,13.38
2022-11-10T07:47:12.934Z,20.60
2022-11-10T07:49:58.046Z,20.15
2022-11-10T07:52:42.926Z,15.38
2022-11-10T07:55:28.025Z,21.73
2022-11-10T07:58:15.600Z,22.17
2022-11-10T08:01:00.452Z,16.73
2022-11-10T08:03:45.503Z,15.98
2022-11-10T08:06:36.001Z,22.58
2022-11-10T08:09:21.537Z,23.80
2022-11-10T08:12:06.919Z,22.65
2022-11-10T08:14:52.057Z,24.23
2022-11-10T08:17:37.145Z,20.42
2022-11-10T08:20:22.597Z,19.83
2022-11-10T08:23:08.510Z,20.02
2022-11-10T08:25:54.106Z,25.35
2022-11-10T08:28:39.127Z,30.92
2022-11-10T08:31:25.427Z,17.17
2022-11-10T08:34:10.521Z,28.63
2022-11-10T08:36:55.621Z,20.10
2022-11-10T08:39:41.054Z,23.98
2022-11-10T08:42:25.924Z,34.47
2022-11-10T08:45:11.201Z,17.00
2022-11-10T08:48:00.416Z,20.58
2022-11-10T08:50:46.810Z,21.35
2022-11-10T08:53:32.027Z,23.40
2022-11-10T08:56:16.980Z,18.58
2022-11-10T08:59:01.965Z,17.73
2022-11-10T09:01:46.875Z,20.05
2022-11-10T09:04:32.143Z,24.42
2022-11-10T09:07:17.596Z,20.50
2022-11-10T09:10:07.640Z,19.15
2022-11-10T09:12:53.221Z,24.38
2022-11-10T09:15:38.996Z,23.55
2022-11-10T09:18:24.182Z,15.70
2022-11-10T09:21:11.847Z,27.23
2022-11-10T09:23:57.245Z,19.63
2022-11-10T09:26:45.228Z,21.17
2022-11-10T09:29:30.185Z,27.17
2022-11-10T09:32:15.297Z,24.73
2022-11-10T09:35:01.178Z,19.70
2022-11-10T09:37:46.470Z,20.33
2022-11-10T09:40:43.683Z,15.75
2022-11-10T09:43:37.657Z,21.73
2022-11-10T09:46:49.808Z,14.93
2022-11-10T09:49:48.537Z,17.10
2022-11-10T09:52:36.841Z,18.80
2022-11-10T09:55:36.957Z,17.17
2022-11-10T09:58:29.896Z,19.42
2022-11-10T10:01:33.605Z,21.42
2022-11-10T10:04:52.442Z,14.40
2022-11-10T10:08:11.336Z,11.07
2022-11-10T10:11:05.600Z,13.05
2022-11-10T10:14:14.129Z,14.32
2022-11-10T10:17:08.722Z,21.15
2022-11-10T10:20:01.825Z,16.63
2022-11-10T10:23:14.511Z,15.98
2022-11-10T10:26:00.638Z,21.75
2022-11-10T10:28:48.544Z,17.67
2022-11-10T10:31:47.242Z,13.00
2022-11-10T10:34:34.526Z,18.20
2022-11-10T10:37:22.816Z,14.80
2022-11-10T10:40:14.883Z,13.57
2022-11-10T10:43:00.331Z,19.17
2022-11-10T10:46:03.862Z,15.68
2022-11-10T10:49:27.520Z,18.52
2022-11-10T10:52:15.778Z,13.85
2022-11-10T10:55:05.559Z,22.58
2022-11-10T10:57:58.907Z,11.95
2022-11-10T11:01:02.744Z,11.20
2022-11-10T11:03:50.043Z,15.57
2022-11-10T11:06:35.970Z,12.32
2022-11-10T11:09:40.062Z,15.82
2022-11-10T11:12:31.553Z,11.80
2022-11-10T11:15:26.685Z,6.80
2022-11-10T11:18:20.648Z,11.15
2022-11-10T11:21:15.251Z,11.93
2022-11-10T11:24:09.356Z,14.55
2022-11-10T11:27:20.191Z,10.85
2022-11-10T11:30:16.330Z,8.50
2022-11-10T11:33:14.615Z,10.65
2022-11-10T11:36:11.968Z,12.90
2022-11-10T11:39:14.247Z,17.27
2022-11-10T11:42:24.361Z,14.73
2022-11-10T11:45:47.105Z,9.45
2022-11-10T11:48:56.632Z,19.42
2022-11-10T11:51:56.677Z,12.93
2022-11-10T11:54:54.457Z,14.77
2022-11-10T11:57:42.491Z,21.67
2022-11-10T12:00:30.531Z,19.00
2022-11-10T12:03:42.722Z,10.65
2022-11-10T12:06:41.581Z,16.45
2022-11-10T12:09:33.038Z,13.57
2022-11-10T12:12:44.474Z,15.48
2022-11-10T12:15:57.225Z,16.75
2022-11-10T12:18:56.050Z,17.27
2022-11-10T12:22:03.034Z,17.30
2022-11-10T12:25:11.974Z,13.80
2022-11-10T12:28:15.259Z,18.65
2022-11-10T12:31:03.219Z,16.05
2022-11-10T12:33:58.616Z,14.27
2022-11-10T12:36:45.897Z,18.50
2022-11-10T12:39:36.995Z,15.25
2022-11-10T12:42:25.242Z,16.52
2022-11-10T12:45:36.684Z,19.83
2022-11-10T12:48:22.994Z,15.25
2022-11-10T12:51:27.968Z,15.27
2022-11-10T12:54:17.008Z,13.68
2022-11-10T12:57:26.927Z,16.98
2022-11-10T13:00:27.259Z,10.95
2022-11-10T13:03:24.364Z,11.15
2022-11-10T13:06:23.533Z,19.40
2022-11-10T13:09:26.544Z,13.60
2022-11-10T13:12:18.100Z,11.60
2022-11-10T13:15:37.814Z,9.90
2022-11-10T13:18:31.769Z,22.73
2022-11-10T13:21:16.710Z,9.32
2022-11-10T13:24:02.558Z,14.32
2022-11-10T13:26:52.842Z,17.77
2022-11-10T13:29:43.899Z,12.13
2022-11-10T13:32:30.238Z,14.10
2022-11-10T13:35:37.721Z,13.80
2022-11-10T13:38:31.821Z,16.60
2022-11-10T13:41:16.906Z,19.13
2022-11-10T13:44:02.901Z,28.63
2022-11-10T13:47:10.029Z,14.52
2022-11-10T13:50:21.004Z,18.67
2022-11-10T13:53:30.849Z,14.95
2022-11-10T13:56:50.127Z,14.70
2022-11-10T13:59:47.649Z,22.38
2022-11-10T14:02:41.477Z,19.48
2022-11-10T14:05:29.681Z,21.08
2022-11-10T14:08:20.040Z,22.25
2022-11-10T14:11:13.923Z,24.80
2022-11-10T14:14:13.430Z,18.75
2022-11-10T14:16:58.875Z,14.07
2022-11-10T14:19:45.897Z,20.85
2022-11-10T14:22:42.919Z,18.20
2022-11-10T14:25:36.293Z,15.52
2022-11-10T14:28:33.547Z,11.68
2022-11-10T14:31:25.013Z,19.83
2022-11-10T14:34:16.507Z,15.48
2022-11-10T14:37:03.522Z,10.10
2022-11-10T14:39:52.725Z,21.85
2022-11-10T14:42:38.860Z,15.77
2022-11-10T14:45:26.282Z,14.80
2022-11-10T14:48:18.981Z,13.32
2022-11-10T14:51:16.911Z,23.42
2022-11-10T14:54:02.680Z,15.05
2022-11-10T14:56:48.109Z,16.95
2022-11-10T14:59:33.086Z,10.38
2022-11-10T15:02:19.573Z,19.20
2022-11-10T15:05:05.492Z,18.85
2022-11-10T15:07:56.512Z,21.08
2022-11-10T15:10:41.359Z,15.43
2022-11-10T15:13:36.213Z,12.15
2022-11-10T15:16:25.313Z,20.42
2022-11-10T15:19:23.424Z,26.90
2022-11-10T15:22:29.559Z,17.02
2022-11-10T15:25:21.868Z,13.77
2022-11-10T15:28:12.918Z,11.75
2022-11-10T15:31:00.782Z,14.05
2022-11-10T15:33:49.018Z,18.27
2022-11-10T15:36:39.507Z,15.50
2022-11-10T15:39:27.065Z,17.90
2022-11-10T15:42:23.103Z,24.98
2022-11-10T15:45:08.284Z,20.27
2022-11-10T15:47:53.633Z,20.70
2022-11-10T15:50:39.532Z,19.67
2022-11-10T15:53:27.956Z,17.48
2022-11-10T15:56:16.932Z,23.08
2022-11-10T15:59:02.742Z,17.03
2022-11-10T16:01:48.209Z,22.00
2022-11-10T16:04:33.208Z,12.73
2022-11-10T16:07:18.504Z,13.00
2022-11-10T16:10:05.384Z,21.02
2022-11-10T16:12:50.566Z,12.35
2022-11-10T16:15:36.071Z,24.35
2022-11-10T16:18:25.067Z,15.68
2022-11-10T16:21:15.786Z,23.42
2022-11-10T16:24:00.881Z,14.30
2022-11-10T16:26:45.889Z,17.65
2022-11-10T16:29:32.826Z,17.90
2022-11-10T16:32:18.194Z,21.88
2022-11-10T16:35:03.875Z,18.73
2022-11-10T16:37:48.900Z,16.75
2022-11-10T16:40:34.225Z,13.43
2022-11-10T16:43:19.536Z,27.25
2022-11-10T16:46:16.271Z,14.35
2022-11-10T16:49:03.960Z,19.10
2022-11-10T16:51:51.690Z,14.45
2022-11-10T16:54:36.886Z,20.80
2022-11-10T16:57:22.006Z,19.15
2022-11-10T17:00:07.682Z,15.50
2022-11-10T17:03:04.664Z,14.57
2022-11-10T17:05:49.737Z,16.90
2022-11-10T17:08:35.845Z,13.75
2022-11-10T17:11:21.473Z,14.02
2022-11-10T17:14:07.245Z,12.70
2022-11-10T17:16:52.420Z,11.55
2022-11-10T17:19:37.259Z,10.27
2022-11-10T17:22:23.977Z,9.48
2022-11-10T17:25:23.571Z,10.93
2022-11-10T17:28:18.643Z,12.50
2022-11-10T17:31:03.727Z,11.50
2022-11-10T17:33:48.992Z,13.73
2022-11-10T17:36:34.936Z,7.93
2022-11-10T17:39:20.589Z,11.07
2022-11-10T17:42:05.988Z,17.80
2022-11-10T17:44:51.095Z,12.82
2022-11-10T17:47:36.415Z,15.05
2022-11-10T17:50:23.520Z,14.98
2022-11-10T17:53:22.625Z,11.95
2022-11-10T17:56:07.812Z,12.75
2022-11-10T17:58:53.497Z,10.82
2022-11-10T18:01:38.614Z,7.93
2022-11-10T18:04:23.816Z,11.65
2022-11-10T18:07:09.009Z,13.98
2022-11-10T18:09:54.276Z,14.38
2022-11-10T18:12:40.579Z,9.73
2022-11-10T18:15:25.686Z,18.30
2022-11-10T18:18:16.476Z,12.38
2022-11-10T18:21:01.720Z,16.20
2022-11-10T18:23:46.935Z,14.35
2022-11-10T18:26:31.839Z,15.77
2022-11-10T18:29:16.831Z,16.27
2022-11-10T18:32:02.925Z,15.30
2022-11-10T18:34:48.123Z,11.15
2022-11-10T18:37:36.755Z,17.60
2022-11-10T18:40:23.987Z,21.75
2022-11-10T18:43:09.261Z,14.38
2022-11-10T18:45:54.676Z,11.50
2022-11-10T18:48:40.716Z,12.63
2022-11-10T18:51:26.240Z,12.73
2022-11-10T18:54:11.320Z,10.55
2022-11-10T18:56:56.750Z,13.55
2022-11-10T18:59:42.518Z,13.02
2022-11-10T19:02:27.676Z,15.52
2022-11-10T19:05:12.632Z,11.85
2022-11-10T19:07:57.738Z,13.75
2022-11-10T19:10:42.759Z,17.45
2022-11-10T19:13:28.157Z,8.13
2022-11-10T19:16:16.017Z,11.05
2022-11-10T19:19:01.861Z,8.95
2022-11-10T19:21:47.073Z,8.98
2022-11-10T19:24:42.399Z,11.63
2022-11-10T19:27:37.294Z,10.70
2022-11-10T19:30:22.130Z,12.65
2022-11-10T19:33:07.314Z,11.43
2022-11-10T19:35:52.494Z,9.43
2022-11-10T19:38:37.886Z,13.65
2022-11-10T19:41:30.952Z,9.52
2022-11-10T19:44:16.238Z,7.93
2022-11-10T19:47:01.408Z,12.43
2022-11-10T19:49:46.337Z,12.15
2022-11-10T19:52:31.350Z,6.93
2022-11-10T19:55:16.500Z,8.73
2022-11-10T19:58:01.716Z,8.85
2022-11-10T20:00:47.405Z,7.90
2022-11-10T20:03:32.634Z,7.53
2022-11-10T20:06:21.174Z,9.70
2022-11-10T20:09:06.268Z,10.65
2022-11-10T20:11:51.186Z,10.45
2022-11-10T20:14:36.004Z,11.02
2022-11-10T20:17:20.893Z,7.68
2022-11-10T20:20:07.132Z,8.05
2022-11-10T20:22:52.053Z,9.68
2022-11-10T20:25:37.173Z,6.57
2022-11-10T20:28:22.337Z,9.70
2022-11-10T20:31:20.567Z,8.80
2022-11-10T20:34:05.761Z,5.70
2022-11-10T20:36:50.888Z,6.82
2022-11-10T20:39:35.886Z,8.13
2022-11-10T20:42:20.850Z,11.85
2022-11-10T20:45:06.374Z,6.15
2022-11-10T20:47:51.708Z,5.90
2022-11-10T20:50:39.814Z,8.85
2022-11-10T20:53:25.676Z,14.15
2022-11-10T20:56:12.077Z,10.73
2022-11-10T20:58:58.019Z,8.32
2022-11-10T21:01:43.240Z,12.88
2022-11-10T21:04:28.873Z,10.18
2022-11-10T21:07:13.946Z,7.95
2022-11-10T21:09:59.165Z,8.32
2022-11-10T21:12:50.336Z,7.38
2022-11-10T21:15:39.295Z,9.73
2022-11-10T21:18:30.577Z,5.37
2022-11-10T21:21:26.337Z,9.07
2022-11-10T21:24:11.815Z,7.22
2022-11-10T21:26:57.595Z,6.38
2022-11-10T21:29:43.058Z,9.82
2022-11-10T21:32:28.386Z,8.57
2022-11-10T21:35:13.394Z,9.63
2022-11-10T21:37:58.728Z,5.90
2022-11-10T21:40:44.077Z,9.45
2022-11-10T21:43:29.539Z,7.85
2022-11-10T21:46:14.424Z,9.90
2022-11-10T21:49:04.566Z,6.88
2022-11-10T21:51:52.440Z,4.78
2022-11-10T21:54:37.220Z,6.05
2022-11-10T21:57:22.176Z,6.43
2022-11-10T22:00:07.844Z,8.88
2022-11-10T22:02:58.467Z,7.07
2022-11-10T22:05:43.518Z,4.15
2022-11-10T22:08:28.882Z,8.45
2022-11-10T22:11:33.523Z,8.20
2022-11-10T22:14:37.486Z,4.63
2022-11-10T22:17:41.521Z,10.55
2022-11-10T22:20:26.817Z,8.43
2022-11-10T22:23:12.589Z,7.18
2022-11-10T22:25:57.800Z,9.32
2022-11-10T22:28:43.172Z,11.50
2022-11-10T22:31:28.490Z,9.43
2022-11-10T22:34:13.482Z,8.05
2022-11-10T22:36:59.608Z,7.82
2022-11-10T22:40:03.444Z,5.25
2022-11-10T22:43:07.315Z,7.03
2022-11-10T22:45:52.521Z,7.15
2022-11-10T22:48:37.371Z,5.30
2022-11-10T22:51:22.969Z,8.82
2022-11-10T22:54:26.436Z,6.80
2022-11-10T22:57:11.406Z,8.68
2022-11-10T22:59:56.272Z,8.07
2022-11-10T23:02:41.289Z,5.82
2022-11-10T23:05:26.559Z,6.93
2022-11-10T23:08:11.625Z,5.80
2022-11-10T23:11:05.206Z,6.43
2022-11-10T23:13:50.753Z,6.53
2022-11-10T23:16:35.933Z,5.63
2022-11-10T23:19:21.228Z,9.10
2022-11-10T23:22:06.256Z,7.93
2022-11-10T23:24:56.798Z,8.18
2022-11-10T23:27:42.307Z,9.55
2022-11-10T23:30:27.332Z,4.00
2022-11-10T23:33:12.456Z,6.68
2022-11-10T23:35:57.641Z,4.80
2022-11-10T23:38:43.675Z,6.38
2022-11-10T23:41:28.804Z,9.18
2022-11-10T23:44:13.814Z,5.22
2022-11-10T23:46:58.832Z,5.32
2022-11-10T23:49:43.713Z,4.40
2022-11-10T23:52:28.921Z,5.35
2022-11-10T23:55:13.905Z,5.68
2022-11-10T23:57:59.066Z,9.13
